LPPRLPMA

Guest
Details From LPPR - Porto
To LPMA - Madeira
Flight Number -
Tags Generated
Created
Modified
Stats Distance 645 nm / 1,194 km
Max Altitude 0 ft / 0 m
Waypoints 3
Social Downloads 4
Likes 0
Share VATSIM

Download

Looking for another format? Having issues loading an existing format? Contact us
Advertisement - Login to hide

Notes

Generated

Route

LPPR MAD LPMA

ID Type Via Altitude Latitude Longitude Leg Dist Tot Dist Heading (true) Name
O LPPR APT - 0 ft / 0 m 41.26333˚ -8.68524˚ - 0 nm - -
MAD NDB - 0 ft / 0 m 32.74813˚ -16.70651˚ 639 nm 639 nm 219° / 215° MADEIRA NDB
O LPMA APT - 0 ft / 0 m 32.68900˚ -16.78409˚ 5 nm 644 nm 228° / 228° -

Altitude Profile

Advertisement - Login to hide

Weather


0- 5 10 15 20 25 30 35+ Temperature / ° C

Clouds and Precipitation
Forecast for 2018-05-25 18:00 UTC. Updated 3 hours ago

Ground ~20,000 ft ~40,000 ft Winds

LPPR

Details ICAO LPPR (OPO)
Name Porto
Region Portugal
Timezone Europe/Lisbon (UTC+1.0)
Stats Elevation 228 ft / 69 m (AMSL)
Location 41.247932° -8.681221°
Runways 1
Magnetic Variation 2.282° W

METAR

LPPR 252030Z 03003KT 340V050 8000 -RA FEW006 15/15 Q1013

Decode

TAF

TAF LPPR 251700Z 2518/2618 VRB03KT 9999 SCT020 TEMPO 2518/2521 8000 SHRA SCT006 BKN012 FEW025CB BECMG 2600/2603 08005KT PROB30 TEMPO 2603/2608 3000 BR SCT002 BECMG 2609/2612 25010KT BECMG 2613/2615 30007KT

Decode

Departure Runways

ID Width Length Bearing (true) Bearing (mag) Surface Threshold Offset Overrun Length
17 148 ft / 45 m 11,451 ft / 3,490 m 168.88° 171.16° Asphalt 984 ft / 300 m 220 ft / 67 m
35 148 ft / 45 m 11,451 ft / 3,490 m 348.89° 351.17° Asphalt 492 ft / 150 m 370 ft / 113 m

LPMA

Details ICAO LPMA (FNC)
Name Madeira
Region Portugal
Timezone Atlantic/Madeira (UTC+1.0)
Stats Elevation 192 ft / 59 m (AMSL)
Location 32.697704° -16.774449°
Runways 1
Magnetic Variation 4.927° W

METAR

LPMA 252030Z 35009KT 300V040 9999 BKN018 17/11 Q1019

Decode

TAF

TAF LPMA 251700Z 2518/2618 36012KT 9999 SCT016 SCT030 PROB40 TEMPO 2518/2618 36015G25KT

Decode

Destination Runways

ID Width Length Bearing (true) Bearing (mag) Surface Threshold Offset Overrun Length
05 141 ft / 43 m 8,683 ft / 2,647 m 42.98° 47.91° Asphalt 472 ft / 144 m 0 ft / 0 m
23 141 ft / 43 m 8,683 ft / 2,647 m 222.99° 227.92° Asphalt 466 ft / 142 m 0 ft / 0 m

Popular Alternatives